createdAt,value
2023-01-08T00:02:25.970Z,32.25
2023-01-08T00:04:52.364Z,32.00
2023-01-08T00:07:18.773Z,29.25
2023-01-08T00:09:45.305Z,32.25
2023-01-08T00:12:11.808Z,32.50
2023-01-08T00:14:38.118Z,32.00
2023-01-08T00:17:04.559Z,34.25
2023-01-08T00:19:31.273Z,32.25
2023-01-08T00:21:57.656Z,28.50
2023-01-08T00:24:24.185Z,32.25
2023-01-08T00:26:50.613Z,34.00
2023-01-08T00:29:16.953Z,26.25
2023-01-08T00:31:43.339Z,31.25
2023-01-08T00:34:09.733Z,31.00
2023-01-08T00:36:36.048Z,31.75
2023-01-08T00:39:02.352Z,23.00
2023-01-08T00:41:28.725Z,28.75
2023-01-08T00:43:55.103Z,29.50
2023-01-08T00:46:21.547Z,32.25
2023-01-08T00:48:47.951Z,27.50
2023-01-08T00:51:14.446Z,23.00
2023-01-08T00:53:40.821Z,29.50
2023-01-08T00:56:09.168Z,30.00
2023-01-08T00:58:35.587Z,29.75
2023-01-08T01:01:02.408Z,28.75
2023-01-08T01:03:28.940Z,31.00
2023-01-08T01:06:05.052Z,31.50
2023-01-08T01:08:31.565Z,32.25
2023-01-08T01:10:57.931Z,29.50
2023-01-08T01:13:24.308Z,28.50
2023-01-08T01:16:00.184Z,29.75
2023-01-08T01:18:26.868Z,30.75
2023-01-08T01:20:53.262Z,28.00
2023-01-08T01:23:19.723Z,27.00
2023-01-08T01:25:46.092Z,29.50
2023-01-08T01:28:12.497Z,28.00
2023-01-08T01:30:38.906Z,28.25
2023-01-08T01:33:05.313Z,29.25
2023-01-08T01:35:31.728Z,28.25
2023-01-08T01:37:58.086Z,28.00
2023-01-08T01:40:24.511Z,25.00
2023-01-08T01:42:50.920Z,25.50
2023-01-08T01:45:21.131Z,29.25
2023-01-08T01:47:50.519Z,26.75
2023-01-08T01:50:16.868Z,28.00
2023-01-08T01:52:45.657Z,30.00
2023-01-08T01:55:13.334Z,30.75
2023-01-08T01:57:39.892Z,27.00
2023-01-08T02:00:07.486Z,27.50
2023-01-08T02:02:34.482Z,25.75
2023-01-08T02:05:01.949Z,25.00
2023-01-08T02:07:34.112Z,22.50
2023-01-08T02:10:09.695Z,28.25
2023-01-08T02:12:39.107Z,28.00
2023-01-08T02:15:08.587Z,30.00
2023-01-08T02:17:39.621Z,26.25
2023-01-08T02:20:11.789Z,28.75
2023-01-08T02:22:46.303Z,18.50
2023-01-08T02:25:15.409Z,21.00
2023-01-08T02:27:44.171Z,26.75
2023-01-08T02:30:11.110Z,25.50
2023-01-08T02:32:39.129Z,24.50
2023-01-08T02:35:06.538Z,27.25
2023-01-08T02:37:33.305Z,25.00
2023-01-08T02:40:08.872Z,15.50
2023-01-08T02:42:40.560Z,27.75
2023-01-08T02:45:11.906Z,27.00
2023-01-08T02:47:41.608Z,31.00
2023-01-08T02:50:14.765Z,28.00
2023-01-08T02:52:45.198Z,28.00
2023-01-08T02:55:12.514Z,26.50
2023-01-08T02:57:39.775Z,27.00
2023-01-08T03:00:06.786Z,29.00
2023-01-08T03:02:35.524Z,30.25
2023-01-08T03:05:05.170Z,28.00
2023-01-08T03:07:32.019Z,27.00
2023-01-08T03:09:58.689Z,19.75
2023-01-08T03:12:28.553Z,28.00
2023-01-08T03:14:59.239Z,28.00
2023-01-08T03:17:28.357Z,24.50
2023-01-08T03:19:57.983Z,26.00
2023-01-08T03:22:24.453Z,28.75
2023-01-08T03:24:53.185Z,28.00
2023-01-08T03:27:23.464Z,26.00
2023-01-08T03:29:51.411Z,27.25
2023-01-08T03:32:19.568Z,27.25
2023-01-08T03:34:47.666Z,22.75
2023-01-08T03:37:15.048Z,26.00
2023-01-08T03:39:46.295Z,28.00
2023-01-08T03:42:15.097Z,28.00
2023-01-08T03:44:41.537Z,25.25
2023-01-08T03:47:09.754Z,29.00
2023-01-08T03:49:37.109Z,27.25
2023-01-08T03:52:03.648Z,27.25
2023-01-08T03:54:31.286Z,28.00
2023-01-08T03:56:57.791Z,29.75
2023-01-08T03:59:24.275Z,26.00
2023-01-08T04:01:50.802Z,27.00
2023-01-08T04:04:17.342Z,26.75
2023-01-08T04:06:43.806Z,27.50
2023-01-08T04:09:10.189Z,27.50
2023-01-08T04:11:36.517Z,27.25
2023-01-08T04:14:02.899Z,25.75
2023-01-08T04:16:29.361Z,27.00
2023-01-08T04:18:55.807Z,30.00
2023-01-08T04:21:22.159Z,26.25
2023-01-08T04:23:48.553Z,25.25
2023-01-08T04:26:15.357Z,27.50
2023-01-08T04:28:41.737Z,25.00
2023-01-08T04:31:08.867Z,24.75
2023-01-08T04:33:35.835Z,21.00
2023-01-08T04:36:02.731Z,27.25
2023-01-08T04:38:29.047Z,29.00
2023-01-08T04:41:02.259Z,24.25
2023-01-08T04:43:29.057Z,24.50
2023-01-08T04:45:59.340Z,24.50
2023-01-08T04:48:26.061Z,27.00
2023-01-08T04:50:52.747Z,22.25
2023-01-08T04:53:19.216Z,28.00
2023-01-08T04:55:45.731Z,27.50
2023-01-08T04:58:12.385Z,26.25
2023-01-08T05:00:39.615Z,26.25
2023-01-08T05:03:06.042Z,27.00
2023-01-08T05:05:33.704Z,27.25
2023-01-08T05:08:00.132Z,22.50
2023-01-08T05:10:26.571Z,26.00
2023-01-08T05:12:52.941Z,22.75
2023-01-08T05:15:19.450Z,25.00
2023-01-08T05:17:45.846Z,27.00
2023-01-08T05:20:12.266Z,26.00
2023-01-08T05:22:38.687Z,24.50
2023-01-08T05:25:05.276Z,26.00
2023-01-08T05:27:31.638Z,24.00
2023-01-08T05:29:58.169Z,25.00
2023-01-08T05:32:24.549Z,28.25
2023-01-08T05:34:51.015Z,25.75
2023-01-08T05:37:17.419Z,21.75
2023-01-08T05:39:43.758Z,18.50
2023-01-08T05:42:10.120Z,23.00
2023-01-08T05:44:36.483Z,21.00
2023-01-08T05:47:02.970Z,25.25
2023-01-08T05:49:29.336Z,18.00
2023-01-08T05:51:55.753Z,11.75
2023-01-08T05:54:22.162Z,25.00
2023-01-08T05:56:48.602Z,25.25
2023-01-08T05:59:15.082Z,15.75
2023-01-08T06:01:41.597Z,25.50
2023-01-08T06:04:08.353Z,27.75
2023-01-08T06:06:34.798Z,23.25
2023-01-08T06:09:01.172Z,23.00
2023-01-08T06:11:27.566Z,26.00
2023-01-08T06:13:53.956Z,23.50
2023-01-08T06:16:21.187Z,22.50
2023-01-08T06:18:47.580Z,26.00
2023-01-08T06:21:14.074Z,26.75
2023-01-08T06:23:40.844Z,28.00
2023-01-08T06:26:07.320Z,25.75
2023-01-08T06:28:33.732Z,24.50
2023-01-08T06:31:00.800Z,16.50
2023-01-08T06:33:27.343Z,25.75
2023-01-08T06:35:53.718Z,30.00
2023-01-08T06:38:20.506Z,17.00
2023-01-08T06:40:47.235Z,27.25
2023-01-08T06:43:14.164Z,22.00
2023-01-08T06:45:41.443Z,28.50
2023-01-08T06:48:07.888Z,33.25
2023-01-08T06:50:34.885Z,27.75
2023-01-08T06:53:01.488Z,23.75
2023-01-08T06:55:27.881Z,19.75
2023-01-08T06:57:58.321Z,28.00
2023-01-08T07:00:26.219Z,28.00
2023-01-08T07:02:53.740Z,27.50
2023-01-08T07:05:20.541Z,22.00
2023-01-08T07:07:46.984Z,17.75
2023-01-08T07:10:13.581Z,23.75
2023-01-08T07:12:40.045Z,22.00
2023-01-08T07:15:06.859Z,24.75
2023-01-08T07:17:33.742Z,22.50
2023-01-08T07:20:00.164Z,18.50
2023-01-08T07:22:27.509Z,22.25
2023-01-08T07:24:53.855Z,19.50
2023-01-08T07:27:20.322Z,21.00
2023-01-08T07:29:46.703Z,25.00
2023-01-08T07:32:13.020Z,26.75
2023-01-08T07:34:39.407Z,17.25
2023-01-08T07:37:05.801Z,20.75
2023-01-08T07:39:32.223Z,19.50
2023-01-08T07:41:58.709Z,22.25
2023-01-08T07:44:25.119Z,16.75
2023-01-08T07:46:51.536Z,17.50
2023-01-08T07:49:18.046Z,22.50
2023-01-08T07:51:44.423Z,24.50
2023-01-08T07:54:11.154Z,21.25
2023-01-08T07:56:37.574Z,22.00
2023-01-08T07:59:04.098Z,20.00
2023-01-08T08:01:30.693Z,21.00
2023-01-08T08:03:57.214Z,18.00
2023-01-08T08:06:23.613Z,25.50
2023-01-08T08:08:49.974Z,17.25
2023-01-08T08:11:16.331Z,26.25
2023-01-08T08:13:44.993Z,29.25
2023-01-08T08:16:11.651Z,22.75
2023-01-08T08:18:38.057Z,17.50
2023-01-08T08:21:04.833Z,22.00
2023-01-08T08:23:32.468Z,28.00
2023-01-08T08:25:58.854Z,28.00
2023-01-08T08:28:25.182Z,31.00
2023-01-08T08:30:51.673Z,31.00
2023-01-08T08:33:18.028Z,36.75
2023-01-08T08:35:48.453Z,32.00
2023-01-08T08:38:14.926Z,38.00
2023-01-08T08:40:42.249Z,39.50
2023-01-08T08:43:09.914Z,30.00
2023-01-08T08:45:36.463Z,26.25
2023-01-08T08:48:05.176Z,22.25
2023-01-08T08:50:31.607Z,25.50
2023-01-08T08:53:05.177Z,29.25
2023-01-08T08:55:32.963Z,37.75
2023-01-08T08:58:07.217Z,29.75
2023-01-08T09:00:33.925Z,21.75
2023-01-08T09:03:00.452Z,27.25
2023-01-08T09:05:27.048Z,30.25
2023-01-08T09:07:54.424Z,29.00
2023-01-08T09:10:21.865Z,30.25
2023-01-08T09:12:48.298Z,26.50
2023-01-08T09:15:14.717Z,24.75
2023-01-08T09:17:41.106Z,21.50
2023-01-08T09:20:07.829Z,18.50
2023-01-08T09:22:34.277Z,25.50
2023-01-08T09:25:00.592Z,23.25
2023-01-08T09:27:27.006Z,20.75
2023-01-08T09:29:53.361Z,28.00
2023-01-08T09:32:19.789Z,22.75
2023-01-08T09:34:46.145Z,26.50
2023-01-08T09:37:12.449Z,19.75
2023-01-08T09:39:41.127Z,22.75
2023-01-08T09:42:11.713Z,27.75
2023-01-08T09:44:40.281Z,27.25
2023-01-08T09:47:21.591Z,25.50
2023-01-08T09:49:48.898Z,23.50
2023-01-08T09:52:16.068Z,16.00
2023-01-08T09:54:42.489Z,22.00
2023-01-08T09:57:16.968Z,18.75
2023-01-08T09:59:43.782Z,21.25
2023-01-08T10:02:23.961Z,25.25
2023-01-08T10:04:54.936Z,21.33
2023-01-08T10:07:22.400Z,23.00
2023-01-08T10:09:52.102Z,26.25
2023-01-08T10:12:26.599Z,20.50
2023-01-08T10:14:54.496Z,15.75
2023-01-08T10:17:27.313Z,23.00
2023-01-08T10:19:54.194Z,20.00
2023-01-08T10:22:22.498Z,25.25
2023-01-08T10:24:49.185Z,21.75
2023-01-08T10:27:20.142Z,21.25
2023-01-08T10:29:46.923Z,19.00
2023-01-08T10:32:13.215Z,23.75
2023-01-08T10:34:39.656Z,19.25
2023-01-08T10:37:35.467Z,15.00
2023-01-08T10:40:20.440Z,22.50
2023-01-08T10:42:47.123Z,19.00
2023-01-08T10:45:24.083Z,18.00
2023-01-08T10:47:51.965Z,26.00
2023-01-08T10:50:26.236Z,22.00
2023-01-08T10:52:57.575Z,23.00
2023-01-08T10:55:25.708Z,19.75
2023-01-08T10:57:55.188Z,22.00
2023-01-08T11:00:22.567Z,12.00
2023-01-08T11:02:50.597Z,19.50
2023-01-08T11:05:17.199Z,13.50
2023-01-08T11:07:48.108Z,20.25
2023-01-08T11:10:25.064Z,18.75
2023-01-08T11:13:04.985Z,17.75
2023-01-08T11:15:33.087Z,20.00
2023-01-08T11:18:18.092Z,14.50
2023-01-08T11:20:44.715Z,27.00
2023-01-08T11:23:17.255Z,28.75
2023-01-08T11:25:45.623Z,27.00
2023-01-08T11:28:15.714Z,23.00
2023-01-08T11:30:44.230Z,20.00
2023-01-08T11:33:16.929Z,26.50
2023-01-08T12:00:25.515Z,20.67
2023-01-08T12:02:56.154Z,18.00
2023-01-08T12:05:24.975Z,19.75
2023-01-08T12:08:26.652Z,23.00
2023-01-08T12:11:11.839Z,25.00
2023-01-08T12:14:10.462Z,19.67
2023-01-08T12:16:55.283Z,25.25
2023-01-08T12:19:45.742Z,23.33
2023-01-08T12:22:32.295Z,24.67
2023-01-08T12:25:01.579Z,27.75
2023-01-08T12:27:55.290Z,25.33
2023-01-08T12:30:42.258Z,24.67
2023-01-08T12:33:27.490Z,20.33
2023-01-08T12:35:55.177Z,20.00
2023-01-08T12:38:33.174Z,19.00
2023-01-08T12:41:06.784Z,24.00
2023-01-08T12:43:35.869Z,28.00
2023-01-08T12:46:03.490Z,29.00
2023-01-08T12:48:31.572Z,26.25
2023-01-08T12:51:04.065Z,22.33
2023-01-08T12:53:32.035Z,23.67
2023-01-08T12:56:13.204Z,22.67
2023-01-08T12:58:45.575Z,19.67
2023-01-08T13:01:12.039Z,20.33
2023-01-08T13:03:38.880Z,17.25
2023-01-08T13:06:10.363Z,20.50
2023-01-08T13:08:38.053Z,9.00
2023-01-08T13:11:05.008Z,22.00
2023-01-08T13:13:31.398Z,20.33
2023-01-08T13:16:21.072Z,21.33
2023-01-08T13:18:55.165Z,24.67
2023-01-08T13:21:41.772Z,19.00
2023-01-08T13:24:29.822Z,19.25
2023-01-08T13:27:14.455Z,25.00
2023-01-08T13:29:45.046Z,7.50
2023-01-08T13:32:23.634Z,20.00
2023-01-08T13:35:00.405Z,18.00
2023-01-08T13:37:28.082Z,22.00
2023-01-08T13:39:54.626Z,21.75
2023-01-08T13:42:21.095Z,24.67
2023-01-08T13:44:49.108Z,24.33
2023-01-08T13:47:29.941Z,23.00
2023-01-08T13:49:56.784Z,25.33
2023-01-08T13:52:34.000Z,19.00
2023-01-08T13:55:03.192Z,28.00
2023-01-08T13:57:34.287Z,23.33
2023-01-08T14:00:01.014Z,23.00
2023-01-08T14:02:30.993Z,25.33
2023-01-08T14:04:58.590Z,24.00
2023-01-08T14:07:25.989Z,19.00
2023-01-08T14:09:52.984Z,19.75
2023-01-08T14:12:22.120Z,24.00
2023-01-08T14:14:57.784Z,22.67
2023-01-08T14:17:29.017Z,17.50
2023-01-08T14:19:55.548Z,24.00
2023-01-08T14:22:25.638Z,23.00
2023-01-08T14:24:56.207Z,20.33
2023-01-08T14:27:26.724Z,24.00
2023-01-08T14:29:53.747Z,26.00
2023-01-08T14:32:21.717Z,27.00
2023-01-08T14:34:49.214Z,21.33
2023-01-08T14:37:16.449Z,19.00
2023-01-08T14:39:43.734Z,26.00
2023-01-08T14:42:54.875Z,28.00
2023-01-08T14:45:26.559Z,31.00
2023-01-08T14:47:58.004Z,31.00
2023-01-08T14:50:33.644Z,29.75
2023-01-08T14:53:20.337Z,29.50
2023-01-08T14:55:49.578Z,33.50
2023-01-08T14:58:17.180Z,31.00
2023-01-08T15:00:47.883Z,34.25
2023-01-08T15:03:31.971Z,36.75
2023-01-08T15:05:58.555Z,28.00
2023-01-08T15:08:26.535Z,30.00
2023-01-08T15:11:00.667Z,36.00
2023-01-08T15:13:30.869Z,35.00
2023-01-08T15:16:00.986Z,39.00
2023-01-08T15:18:27.590Z,31.00
2023-01-08T15:20:54.516Z,32.75
2023-01-08T15:23:24.796Z,36.00
2023-01-08T15:25:52.061Z,37.50
2023-01-08T15:28:21.657Z,34.00
2023-01-08T15:30:48.381Z,34.25
2023-01-08T15:33:22.946Z,31.25
2023-01-08T15:35:49.685Z,32.25
2023-01-08T15:38:16.542Z,30.00
2023-01-08T15:40:43.464Z,32.75
2023-01-08T15:43:11.164Z,30.25
2023-01-08T15:45:41.874Z,29.00
2023-01-08T15:48:08.801Z,32.00
2023-01-08T15:50:38.975Z,37.00
2023-01-08T15:53:07.835Z,41.00
2023-01-08T15:55:34.391Z,42.25
2023-01-08T15:58:00.894Z,36.25
2023-01-08T16:00:27.534Z,36.00
2023-01-08T16:02:54.226Z,38.50
2023-01-08T16:05:21.605Z,35.00
2023-01-08T16:07:48.059Z,32.00
2023-01-08T16:10:14.883Z,34.00
2023-01-08T16:12:43.194Z,27.00
2023-01-08T16:15:10.459Z,29.50
2023-01-08T16:17:37.266Z,38.00
2023-01-08T16:20:04.640Z,36.75
2023-01-08T16:22:31.027Z,38.00
2023-01-08T16:24:57.663Z,39.50
2023-01-08T16:27:24.374Z,37.00
2023-01-08T16:29:50.778Z,32.00
2023-01-08T16:32:17.439Z,30.75
2023-01-08T16:34:43.913Z,38.00
2023-01-08T16:37:10.391Z,32.25
2023-01-08T16:39:36.711Z,38.25
2023-01-08T16:42:03.206Z,38.00
2023-01-08T16:44:29.784Z,45.25
2023-01-08T16:46:56.226Z,46.75
2023-01-08T16:49:22.803Z,49.00
2023-01-08T16:51:49.192Z,8.75
2023-01-08T16:54:16.108Z,59.50
2023-01-08T16:56:42.476Z,58.50
2023-01-08T16:59:18.290Z,66.75
2023-01-08T17:01:49.049Z,59.25
2023-01-08T17:04:15.417Z,59.25
2023-01-08T17:06:41.824Z,82.67
2023-01-08T17:09:10.824Z,95.25
2023-01-08T17:11:37.867Z,90.00
2023-01-08T17:14:04.271Z,107.00
2023-01-08T17:16:30.809Z,93.00
2023-01-08T17:18:57.213Z,84.00
2023-01-08T17:21:23.619Z,90.00
2023-01-08T17:23:50.020Z,81.67
2023-01-08T17:26:17.858Z,79.00
2023-01-08T17:28:45.261Z,72.50
2023-01-08T17:31:18.305Z,70.25
2023-01-08T17:33:49.697Z,62.75
2023-01-08T17:36:17.426Z,48.75
2023-01-08T17:38:43.989Z,63.00
2023-01-08T17:41:10.497Z,61.75
2023-01-08T17:43:37.792Z,56.00
2023-01-08T17:46:07.646Z,54.50
2023-01-08T17:48:34.452Z,51.50
2023-01-08T17:51:05.506Z,53.00
2023-01-08T17:53:32.836Z,55.00
2023-01-08T17:56:01.883Z,44.00
2023-01-08T17:58:28.286Z,50.25
2023-01-08T18:00:54.666Z,46.25
2023-01-08T18:03:21.052Z,48.25
2023-01-08T18:05:47.403Z,48.50
2023-01-08T18:08:13.848Z,38.50
2023-01-08T18:10:40.323Z,42.75
2023-01-08T18:13:06.723Z,45.75
2023-01-08T18:15:34.005Z,39.75
2023-01-08T18:18:01.079Z,38.25
2023-01-08T18:20:28.238Z,42.50
2023-01-08T18:22:55.160Z,39.25
2023-01-08T18:25:21.667Z,39.00
2023-01-08T18:27:48.034Z,39.50
2023-01-08T18:30:14.575Z,37.25
2023-01-08T18:32:40.915Z,34.00
2023-01-08T18:35:07.469Z,40.25
2023-01-08T18:37:33.911Z,42.75
2023-01-08T18:40:00.250Z,40.75
2023-01-08T18:42:26.714Z,39.00
2023-01-08T18:44:56.501Z,39.00
2023-01-08T18:47:24.670Z,40.25
2023-01-08T18:50:03.075Z,38.00
2023-01-08T18:52:30.044Z,37.75
2023-01-08T18:54:57.753Z,35.50
2023-01-08T18:57:24.113Z,38.50
2023-01-08T18:59:50.539Z,43.00
2023-01-08T19:02:19.002Z,33.25
2023-01-08T19:04:46.222Z,42.50
2023-01-08T19:07:12.729Z,36.75
2023-01-08T19:09:39.106Z,43.25
2023-01-08T19:12:05.682Z,40.75
2023-01-08T19:14:32.154Z,33.75
2023-01-08T19:16:58.561Z,39.25
2023-01-08T19:19:25.065Z,37.25
2023-01-08T19:21:51.458Z,41.50
2023-01-08T19:24:17.914Z,39.75
2023-01-08T19:26:44.397Z,39.75
2023-01-08T19:29:11.335Z,32.25
2023-01-08T19:31:37.771Z,32.75
2023-01-08T19:34:04.577Z,35.25
2023-01-08T19:36:31.128Z,34.25
2023-01-08T19:38:57.949Z,36.50
2023-01-08T19:41:42.701Z,34.75
2023-01-08T19:44:09.278Z,32.00
2023-01-08T19:46:36.415Z,34.00
2023-01-08T19:49:03.891Z,38.00
2023-01-08T19:51:31.502Z,37.25
2023-01-08T19:53:58.190Z,33.00
2023-01-08T19:56:24.739Z,38.75
2023-01-08T19:58:51.303Z,34.75
2023-01-08T20:01:21.872Z,33.25
2023-01-08T20:03:48.560Z,33.25
2023-01-08T20:06:17.440Z,33.00
2023-01-08T20:08:46.126Z,35.50
2023-01-08T20:11:13.475Z,32.00
2023-01-08T20:13:40.519Z,38.00
2023-01-08T20:16:08.171Z,36.25
2023-01-08T20:18:35.053Z,32.00
2023-01-08T20:21:06.225Z,36.50
2023-01-08T20:23:32.727Z,33.50
2023-01-08T20:26:06.643Z,32.25
2023-01-08T20:28:33.975Z,38.25
2023-01-08T20:31:07.310Z,34.25
2023-01-08T20:33:34.399Z,37.25
2023-01-08T20:36:01.431Z,34.00
2023-01-08T20:38:27.869Z,34.00
2023-01-08T20:40:54.280Z,33.50
2023-01-08T20:43:20.716Z,37.00
2023-01-08T20:45:47.451Z,36.75
2023-01-08T20:48:14.001Z,34.50
2023-01-08T20:50:44.647Z,32.25
2023-01-08T20:53:11.047Z,34.00
2023-01-08T20:55:37.415Z,36.25
2023-01-08T20:58:03.797Z,35.25
2023-01-08T21:00:30.139Z,34.25
2023-01-08T21:02:56.775Z,35.25
2023-01-08T21:05:24.634Z,31.75
2023-01-08T21:07:51.010Z,27.25
2023-01-08T21:10:17.435Z,33.25
2023-01-08T21:12:43.865Z,32.75
2023-01-08T21:15:11.660Z,32.75
2023-01-08T21:17:38.074Z,32.00
2023-01-08T21:20:05.351Z,31.25
2023-01-08T21:22:31.769Z,37.25
2023-01-08T21:24:58.146Z,36.25
2023-01-08T21:27:24.488Z,34.75
2023-01-08T21:29:52.353Z,36.75
2023-01-08T21:32:18.715Z,35.00
2023-01-08T21:34:45.959Z,34.50
2023-01-08T21:37:15.150Z,34.25
2023-01-08T21:39:41.876Z,37.00
2023-01-08T21:42:28.303Z,33.50
2023-01-08T21:45:13.703Z,34.00
2023-01-08T21:47:40.361Z,37.50
2023-01-08T21:50:07.312Z,34.75
2023-01-08T21:52:52.267Z,34.00
2023-01-08T21:55:18.606Z,37.00
2023-01-08T21:57:45.556Z,36.25
2023-01-08T22:00:12.855Z,36.75
2023-01-08T22:02:39.389Z,38.75
2023-01-08T22:05:05.881Z,7.50
2023-01-08T22:07:32.452Z,35.25
2023-01-08T22:10:00.573Z,32.75
2023-01-08T22:12:27.403Z,35.50
2023-01-08T22:14:54.728Z,33.75
2023-01-08T22:17:23.876Z,34.00
2023-01-08T22:19:50.370Z,35.00
2023-01-08T22:22:16.780Z,31.75
2023-01-08T22:24:43.145Z,37.00
2023-01-08T22:27:09.992Z,38.00
2023-01-08T22:29:37.185Z,37.25
2023-01-08T22:32:06.473Z,34.25
2023-01-08T22:34:33.787Z,35.25
2023-01-08T22:37:00.218Z,36.75
2023-01-08T22:39:26.818Z,0.00
2023-01-08T22:41:53.290Z,37.75
2023-01-08T22:44:19.756Z,36.75
2023-01-08T22:46:46.167Z,38.25
2023-01-08T22:49:13.257Z,34.25
2023-01-08T22:51:44.944Z,34.00
2023-01-08T22:54:14.614Z,38.75
2023-01-08T22:56:41.031Z,37.00
2023-01-08T22:59:07.395Z,37.00
2023-01-08T23:01:33.818Z,40.00
2023-01-08T23:04:01.044Z,38.00
2023-01-08T23:06:28.564Z,34.25
2023-01-08T23:08:55.770Z,37.50
2023-01-08T23:11:22.792Z,34.00
2023-01-08T23:13:51.196Z,31.00
2023-01-08T23:16:18.524Z,34.25
2023-01-08T23:18:45.575Z,33.25
2023-01-08T23:21:13.789Z,32.75
2023-01-08T23:23:40.231Z,33.25
2023-01-08T23:26:08.469Z,36.75
2023-01-08T23:28:35.252Z,37.00
2023-01-08T23:31:01.722Z,33.75
2023-01-08T23:33:28.279Z,37.00
2023-01-08T23:35:54.704Z,33.25
2023-01-08T23:38:21.156Z,33.75
2023-01-08T23:40:47.688Z,33.00
2023-01-08T23:43:14.099Z,34.25
2023-01-08T23:45:40.491Z,34.00
2023-01-08T23:48:07.663Z,33.75
2023-01-08T23:50:34.267Z,33.00
2023-01-08T23:53:00.774Z,33.75
2023-01-08T23:55:27.351Z,32.25
2023-01-08T23:57:53.809Z,34.00
